Time;durP1;ratioP1;P1;durP2;ratioP2;P2;SDS_P1;SDS_P2;PMS_P1;PMS_P2;Temp;Humidity;BMP_temperature;BMP_pressure;BME280_temperature;BME280_humidity;BME280_pressure;Samples;Min_cycle;Max_cycle;Signal;HPM_P1;HPM_P2
2021/09/05 00:00:56;;;;;;;20.48;9.88;;;;;;;26.08;40.91;101229.91;4419011;32;20050;-68
2021/09/05 00:03:22;;;;;;;21.85;9.85;;;;;;;26.07;40.93;101231.22;4421980;32;20072;-68
2021/09/05 00:05:48;;;;;;;20.77;9.30;;;;;;;25.85;nan;101231.34;4418971;32;20129;-68
2021/09/05 00:08:14;;;;;;;17.52;8.00;;;;;;;25.97;41.19;101237.81;4415617;32;20510;-68
2021/09/05 00:10:41;;;;;;;17.55;9.25;;;;;;;25.99;41.14;101227.38;4421526;32;20064;-68
2021/09/05 00:13:07;;;;;;;20.70;9.45;;;;;;;26.02;41.21;101234.94;4419760;32;20468;-68
2021/09/05 00:15:33;;;;;;;19.60;9.27;;;;;;;25.81;41.50;101239.50;4419176;32;20541;-68
2021/09/05 00:17:59;;;;;;;16.23;9.32;;;;;;;25.93;41.22;101240.22;4421615;32;20041;-68
2021/09/05 00:20:24;;;;;;;24.27;9.00;;;;;;;26.01;41.15;101233.37;4418665;32;20030;-68
2021/09/05 00:22:50;;;;;;;19.77;8.98;;;;;;;25.97;41.27;101232.84;4423336;32;20022;-68
2021/09/05 00:25:16;;;;;;;17.05;8.70;;;;;;;26.06;41.07;101237.53;4420908;32;20044;-68
2021/09/05 00:27:42;;;;;;;20.12;8.65;;;;;;;26.05;41.04;101239.63;4421175;32;20104;-68
2021/09/05 00:30:08;;;;;;;20.27;9.30;;;;;;;26.06;40.90;101237.53;4421663;32;20404;-68
2021/09/05 00:32:34;;;;;;;18.02;8.98;;;;;;;26.13;40.94;101237.75;4419162;32;20071;-68
2021/09/05 00:35:00;;;;;;;20.50;9.18;;;;;;;26.15;40.92;101238.00;4418903;32;20117;-68
2021/09/05 00:37:26;;;;;;;20.58;8.50;;;;;;;26.15;40.87;101238.00;4419599;32;20069;-68
2021/09/05 00:39:51;;;;;;;22.23;8.70;;;;;;;26.13;40.79;101239.84;4421123;32;20025;-68
2021/09/05 00:42:22;;;;;;;21.60;9.50;;;;;;;26.17;40.85;101231.69;4420192;32;20093;-68
2021/09/05 00:44:48;;;;;;;14.60;9.02;;;;;;;26.45;40.61;101238.03;4421841;32;20083;-68
2021/09/05 00:47:14;;;;;;;20.45;8.25;;;;;;;26.12;41.01;101232.50;4418780;32;20444;-68
2021/09/05 00:49:40;;;;;;;22.67;9.55;;;;;;;26.10;41.05;101227.28;4418729;32;20464;-68
2021/09/05 00:52:06;;;;;;;17.60;9.35;;;;;;;25.97;41.39;101220.50;4419359;32;20025;-68
2021/09/05 00:54:32;;;;;;;20.50;9.20;;;;;;;26.08;41.09;101227.00;4421710;32;20075;-68
2021/09/05 00:56:58;;;;;;;20.05;9.07;;;;;;;25.99;41.33;101224.47;4418903;32;20062;-68
2021/09/05 00:59:24;;;;;;;14.52;8.70;;;;;;;26.02;41.26;101217.66;4418165;32;20126;-68
2021/09/05 01:01:50;;;;;;;16.77;9.15;;;;;;;26.07;41.22;101222.56;4419373;32;20069;-68
2021/09/05 01:04:16;;;;;;;19.87;9.23;;;;;;;26.09;41.12;101219.16;4419704;32;20172;-68
2021/09/05 01:06:43;;;;;;;22.70;9.07;;;;;;;26.07;41.19;101221.78;4417072;32;20364;-68
2021/09/05 01:09:10;;;;;;;18.55;9.30;;;;;;;25.98;41.20;101217.13;4419400;32;20053;-68
2021/09/05 01:11:37;;;;;;;17.40;9.63;;;;;;;26.08;41.30;101221.25;4421427;32;20048;-68
2021/09/05 01:14:05;;;;;;;19.70;10.18;;;;;;;26.03;41.42;101222.09;4416283;32;20092;-68
2021/09/05 01:16:33;;;;;;;18.62;9.38;;;;;;;26.02;41.45;101217.66;4420307;32;20042;-68
2021/09/05 01:19:16;;;;;;;17.17;8.85;;;;;;;25.96;41.58;101230.50;4423181;32;20014;-68
2021/09/05 01:21:46;;;;;;;23.00;9.25;;;;;;;26.12;41.36;101232.50;4421318;32;20033;-68
2021/09/05 01:24:13;;;;;;;18.90;8.88;;;;;;;26.05;41.40;101230.97;4420398;32;20056;-68
2021/09/05 01:26:41;;;;;;;17.70;9.30;;;;;;;25.88;41.58;101236.03;4420608;32;20057;-68
2021/09/05 01:29:08;;;;;;;21.75;10.05;;;;;;;26.02;41.57;101234.16;4419605;32;20114;-68
2021/09/05 01:34:20;;;;;;;16.30;8.63;;;;;;;26.39;41.00;101240.19;3996711;31;15157400;-68
2021/09/05 01:36:47;;;;;;;25.52;9.90;;;;;;;26.39;41.00;101240.19;4467953;32;20118;-68
2021/09/05 01:39:15;;;;;;;17.02;9.18;;;;;;;25.79;41.95;101238.44;4463536;32;20394;-68
2021/09/05 01:41:42;;;;;;;24.85;9.55;;;;;;;25.97;41.65;101238.62;4464491;32;20130;-68
2021/09/05 01:44:10;;;;;;;19.62;8.80;;;;;;;25.96;41.69;101242.81;4465388;32;20067;-68
2021/09/05 01:46:36;;;;;;;18.17;9.38;;;;;;;26.10;41.42;101241.69;4449657;32;20083;-68
2021/09/05 01:49:02;;;;;;;19.20;8.60;;;;;;;25.94;41.51;101233.91;4450638;32;20100;-68
2021/09/05 01:51:28;;;;;;;19.27;9.10;;;;;;;25.94;41.54;101236.78;4465112;32;20103;-68
2021/09/05 01:53:54;;;;;;;18.77;8.77;;;;;;;25.96;41.59;101236.25;4463155;32;20408;-68
2021/09/05 01:56:19;;;;;;;21.55;9.60;;;;;;;25.94;41.55;101236.00;4466346;32;20059;-67
2021/09/05 01:58:45;;;;;;;21.12;9.77;;;;;;;25.93;41.62;101237.31;4463652;32;20072;-67
2021/09/05 02:01:13;;;;;;;20.27;9.35;;;;;;;25.90;41.67;101239.19;4463771;32;20442;-68
2021/09/05 02:03:39;;;;;;;18.92;8.75;;;;;;;25.97;41.62;101240.69;4466947;32;20097;-68
2021/09/05 02:06:04;;;;;;;19.92;8.32;;;;;;;25.89;41.69;101242.59;4464057;32;20072;-70
2021/09/05 02:08:31;;;;;;;24.23;9.90;;;;;;;25.85;41.76;101242.09;4464127;32;20081;-68
2021/09/05 02:10:57;;;;;;;20.10;9.13;;;;;;;26.02;41.63;101248.56;4464147;32;20477;-68
2021/09/05 02:13:22;;;;;;;22.90;9.55;;;;;;;25.81;41.84;101247.34;4463656;32;20033;-70
2021/09/05 02:15:49;;;;;;;16.30;8.80;;;;;;;25.65;42.06;101246.16;4464528;32;20020;-69
2021/09/05 02:18:15;;;;;;;17.75;8.90;;;;;;;25.77;41.96;101241.88;4463244;32;20071;-68
2021/09/05 02:20:41;;;;;;;19.95;8.52;;;;;;;25.84;41.97;101241.31;4465940;32;20084;-69
2021/09/05 02:23:06;;;;;;;15.95;8.57;;;;;;;25.58;42.04;101243.03;4465221;32;20024;-68
2021/09/05 02:25:32;;;;;;;16.17;8.90;;;;;;;25.53;42.42;101243.84;4465894;32;20032;-68
2021/09/05 02:27:58;;;;;;;19.25;9.13;;;;;;;25.61;42.20;101247.75;4463038;32;20068;-68
2021/09/05 02:30:23;;;;;;;18.87;8.43;;;;;;;25.60;42.44;101246.16;4468087;32;20112;-68
2021/09/05 02:32:49;;;;;;;19.52;7.97;;;;;;;25.60;42.37;101246.16;4463274;32;20489;-68
2021/09/05 02:35:15;;;;;;;16.70;8.75;;;;;;;25.46;42.60;101250.91;4466142;32;20121;-68
2021/09/05 02:37:40;;;;;;;19.77;8.95;;;;;;;25.60;42.43;101246.94;4467098;32;20104;-69
2021/09/05 02:40:07;;;;;;;17.83;8.30;;;;;;;25.59;42.41;101248.28;4465876;32;20051;-69
2021/09/05 02:42:34;;;;;;;20.20;8.73;;;;;;;25.72;42.29;101248.47;4463361;32;20143;-69
2021/09/05 02:45:01;;;;;;;14.90;8.02;;;;;;;25.79;42.27;101247.88;4456974;32;20101;-69
2021/09/05 02:47:27;;;;;;;23.35;8.32;;;;;;;25.77;42.24;101243.97;4452477;32;20410;-69
2021/09/05 02:49:53;;;;;;;17.10;7.90;;;;;;;25.74;42.17;101247.94;4454222;32;20111;-69
2021/09/05 02:52:20;;;;;;;15.38;8.27;;;;;;;25.70;42.21;101247.41;4449647;32;20097;-69
2021/09/05 02:54:46;;;;;;;18.83;8.40;;;;;;;25.77;42.14;101238.22;4453464;32;20493;-69
2021/09/05 02:57:11;;;;;;;14.85;8.40;;;;;;;25.66;42.26;101241.13;4453330;32;20080;-69
2021/09/05 02:59:37;;;;;;;19.05;8.52;;;;;;;25.62;42.38;101232.00;4456272;32;20089;-69
2021/09/05 03:02:05;;;;;;;21.98;8.50;;;;;;;25.63;42.17;101242.22;4448642;32;20057;-69
2021/09/05 03:04:31;;;;;;;14.05;7.47;;;;;;;25.69;42.28;101240.09;4454699;32;20084;-69
2021/09/05 03:06:57;;;;;;;15.75;7.55;;;;;;;25.62;42.44;101246.41;4453137;32;20021;-69
2021/09/05 03:09:22;;;;;;;17.77;8.85;;;;;;;25.52;42.47;101236.50;4454882;32;20021;-69
2021/09/05 03:11:48;;;;;;;22.00;8.38;;;;;;;25.63;42.37;101237.22;4453135;32;20109;-69
2021/09/05 03:14:14;;;;;;;19.00;9.00;;;;;;;25.59;42.40;101241.72;4454514;32;20052;-69
2021/09/05 03:16:40;;;;;;;26.00;7.97;;;;;;;25.60;42.47;101240.37;4452235;32;20439;-69
2021/09/05 03:19:06;;;;;;;18.35;8.70;;;;;;;25.56;42.46;101232.03;4454197;32;20025;-69
2021/09/05 03:21:31;;;;;;;22.45;9.00;;;;;;;25.44;42.62;101232.59;4453710;32;20148;-69
2021/09/05 03:23:57;;;;;;;18.98;9.38;;;;;;;25.39;42.75;101234.19;4454181;32;20150;-69
2021/09/05 03:26:23;;;;;;;21.42;8.98;;;;;;;25.22;43.13;101239.97;4451583;32;20032;-69
2021/09/05 03:28:48;;;;;;;16.62;8.52;;;;;;;25.21;43.13;101232.66;4457954;32;21143;-69
2021/09/05 03:31:14;;;;;;;21.20;9.48;;;;;;;25.18;43.24;101239.47;4453549;32;20139;-69
2021/09/05 03:33:40;;;;;;;19.23;9.30;;;;;;;25.15;43.28;101233.97;4454424;32;20137;-69
2021/09/05 03:36:05;;;;;;;17.75;9.20;;;;;;;25.11;43.34;101234.28;4459085;32;20041;-69
2021/09/05 03:38:33;;;;;;;19.62;9.30;;;;;;;24.94;43.67;101232.72;4454778;32;20091;-68
2021/09/05 03:40:58;;;;;;;17.37;9.13;;;;;;;25.09;43.52;101236.87;4452148;32;20036;-68
2021/09/05 03:43:25;;;;;;;20.73;9.27;;;;;;;24.86;43.96;101235.38;4447346;32;20490;-69
2021/09/05 03:45:50;;;;;;;18.25;8.75;;;;;;;24.82;44.05;101236.97;4450696;32;20466;-68
2021/09/05 03:48:16;;;;;;;19.73;8.68;;;;;;;24.73;44.18;101235.12;4455182;32;20071;-68
2021/09/05 03:50:42;;;;;;;26.10;9.43;;;;;;;24.69;44.29;101245.31;4452904;32;20059;-69
2021/09/05 03:53:08;;;;;;;15.85;9.10;;;;;;;24.58;44.46;101245.31;4451343;32;20032;-68
2021/09/05 03:55:34;;;;;;;23.17;9.82;;;;;;;24.57;44.59;101235.88;4452391;32;20422;-68
2021/09/05 03:58:02;;;;;;;17.02;9.30;;;;;;;24.44;44.82;101231.97;4455467;32;20059;-68
2021/09/05 04:00:28;;;;;;;14.48;8.95;;;;;;;24.44;44.83;101235.62;4451802;32;20592;-69
2021/09/05 04:02:54;;;;;;;19.92;9.43;;;;;;;24.60;44.51;101236.94;4453913;32;20404;-68
2021/09/05 04:05:19;;;;;;;22.62;9.80;;;;;;;24.52;44.67;101233.03;4452605;32;20021;-68
2021/09/05 04:08:17;;;;;;;20.55;9.43;;;;;;;24.42;44.83;101235.38;4450995;32;20037;-68
2021/09/05 04:10:32;;;;;;;;;;;;;;;24.38;44.82;101237.72;4451927;32;20484;-68
2021/09/05 04:12:57;;;;;;;16.73;8.73;;;;;;;24.63;44.61;101238.75;4449445;32;20077;-68
2021/09/05 04:15:23;;;;;;;24.37;10.13;;;;;;;24.40;44.88;101232.25;4454732;32;20088;-69
2021/09/05 04:17:49;;;;;;;17.27;8.52;;;;;;;24.44;44.89;101232.75;4452159;32;20033;-69
2021/09/05 04:20:16;;;;;;;18.90;9.68;;;;;;;24.41;44.97;101230.94;4455192;32;20320;-68
2021/09/05 04:22:42;;;;;;;24.77;9.57;;;;;;;24.61;44.58;101232.75;4449750;32;20072;-68
2021/09/05 04:25:08;;;;;;;22.35;9.88;;;;;;;24.41;44.80;101233.81;4452966;32;20055;-68
2021/09/05 04:27:34;;;;;;;22.55;8.95;;;;;;;24.43;44.99;101236.16;4452705;32;20045;-68
2021/09/05 04:30:00;;;;;;;18.27;8.98;;;;;;;24.36;44.81;101245.31;4452500;32;20055;-69
2021/09/05 04:32:25;;;;;;;18.00;9.02;;;;;;;24.35;44.94;101237.97;4450779;32;20388;-68
2021/09/05 04:34:51;;;;;;;16.20;8.32;;;;;;;24.30;44.99;101239.53;4454571;32;20466;-68
2021/09/05 04:37:18;;;;;;;16.87;8.23;;;;;;;24.25;44.97;101243.22;4455121;32;20056;-69
2021/09/05 04:39:46;;;;;;;18.92;8.55;;;;;;;24.24;45.07;101238.75;4453010;32;20105;-69
2021/09/05 04:42:11;;;;;;;19.75;8.82;;;;;;;24.16;45.05;101243.47;4454204;32;20424;-69
2021/09/05 04:44:38;;;;;;;18.27;8.68;;;;;;;24.14;45.07;101243.19;4449705;32;20442;-69
2021/09/05 04:47:05;;;;;;;21.83;8.75;;;;;;;24.17;44.96;101245.03;4453139;32;20168;-69
2021/09/05 04:49:32;;;;;;;21.30;9.15;;;;;;;24.09;45.11;101246.06;4452418;32;20112;-69
2021/09/05 04:51:59;;;;;;;20.45;10.35;;;;;;;24.14;44.90;101248.19;4450629;32;20065;-69
2021/09/05 04:54:25;;;;;;;18.35;9.02;;;;;;;24.10;44.99;101242.66;4450357;32;20124;-69
2021/09/05 04:56:51;;;;;;;18.85;8.82;;;;;;;24.01;45.12;101248.66;4453715;32;20951;-69
2021/09/05 04:59:16;;;;;;;22.70;9.15;;;;;;;24.05;45.14;101239.81;4452844;32;20025;-69
2021/09/05 05:01:42;;;;;;;19.52;9.00;;;;;;;24.09;45.00;101234.56;4450949;32;20189;-69
2021/09/05 05:04:08;;;;;;;19.52;9.95;;;;;;;23.96;45.22;101248.66;4453737;32;20107;-69
2021/09/05 05:06:33;;;;;;;23.95;9.02;;;;;;;23.90;45.17;101245.72;4453120;32;20099;-69
2021/09/05 05:08:59;;;;;;;18.05;8.95;;;;;;;23.89;45.02;101240.50;4453783;32;20081;-69
2021/09/05 05:11:25;;;;;;;23.50;10.05;;;;;;;23.63;45.65;101248.53;4453673;32;20678;-69
2021/09/05 05:13:52;;;;;;;19.87;9.70;;;;;;;23.59;45.81;101242.25;4451217;32;20297;-69
2021/09/05 05:16:19;;;;;;;18.50;9.43;;;;;;;23.39;46.13;101240.34;4449535;32;20112;-69
2021/09/05 05:18:45;;;;;;;24.55;10.55;;;;;;;23.44;46.13;101240.34;4447999;32;20017;-69
2021/09/05 05:21:11;;;;;;;23.65;10.75;;;;;;;23.15;46.64;101234.97;4439713;32;20151;-69
2021/09/05 05:23:37;;;;;;;24.55;11.05;;;;;;;23.10;46.84;101235.72;4449455;32;20049;-69
2021/09/05 05:26:02;;;;;;;21.00;10.32;;;;;;;23.06;47.10;101245.88;4453520;32;20429;-69
2021/09/05 05:28:28;;;;;;;24.90;10.93;;;;;;;22.90;47.31;101238.75;4451306;32;20029;-69
2021/09/05 05:30:54;;;;;;;21.80;10.45;;;;;;;22.84;47.50;101237.94;4456145;32;20092;-69
2021/09/05 05:33:19;;;;;;;26.25;9.77;;;;;;;22.79;47.69;101243.59;4450916;32;20045;-69
2021/09/05 05:35:47;;;;;;;20.35;10.25;;;;;;;22.78;47.65;101242.84;4453374;32;20033;-69
2021/09/05 05:38:13;;;;;;;29.50;11.23;;;;;;;22.69;47.89;101247.97;4451290;32;20067;-69
2021/09/05 05:40:39;;;;;;;22.95;10.75;;;;;;;22.84;47.55;101249.41;4451810;32;20103;-69
2021/09/05 05:43:05;;;;;;;22.23;9.82;;;;;;;22.89;47.32;101256.47;4453194;32;20072;-69
2021/09/05 05:45:31;;;;;;;24.12;10.50;;;;;;;23.13;46.64;101259.75;4455202;32;20068;-69
2021/09/05 05:47:57;;;;;;;20.65;9.38;;;;;;;23.13;46.15;101259.75;4455850;32;20079;-69
2021/09/05 05:50:24;;;;;;;17.87;9.63;;;;;;;23.26;46.24;101266.63;4451380;32;20823;-69
2021/09/05 05:52:51;;;;;;;21.33;9.95;;;;;;;23.18;46.32;101256.94;4449099;32;20037;-69
2021/09/05 05:55:18;;;;;;;24.23;10.57;;;;;;;23.12;46.43;101263.91;4452906;32;20085;-69
2021/09/05 05:57:44;;;;;;;22.98;9.13;;;;;;;23.25;46.34;101267.16;4452830;32;20042;-69
2021/09/05 06:00:10;;;;;;;21.85;10.07;;;;;;;23.07;46.67;101267.56;4452850;32;20036;-69
2021/09/05 06:02:36;;;;;;;22.58;10.15;;;;;;;23.16;46.63;101271.00;4451981;32;20406;-69
2021/09/05 06:05:03;;;;;;;20.90;10.07;;;;;;;23.03;46.51;101282.16;4451744;32;20044;-69
2021/09/05 06:07:30;;;;;;;18.58;8.95;;;;;;;23.32;46.19;101278.19;4455983;32;20076;-69
2021/09/05 06:09:57;;;;;;;19.60;9.27;;;;;;;23.09;46.19;101277.22;4433989;32;20056;-69
2021/09/05 06:12:23;;;;;;;21.73;9.48;;;;;;;23.23;45.92;101275.47;4447590;32;20045;-69
2021/09/05 06:14:49;;;;;;;17.08;8.77;;;;;;;23.23;46.01;101284.09;4451348;32;20033;-69
2021/09/05 06:17:14;;;;;;;16.23;8.73;;;;;;;23.26;45.74;101285.97;4453195;32;20057;-69
2021/09/05 06:19:40;;;;;;;18.00;9.13;;;;;;;23.32;45.66;101290.44;4452535;32;20090;-69
2021/09/05 06:22:06;;;;;;;17.02;8.95;;;;;;;23.50;45.29;101292.09;4454592;32;20076;-69
2021/09/05 06:24:32;;;;;;;23.45;9.63;;;;;;;23.67;45.13;101303.66;4453477;32;20416;-69
2021/09/05 06:26:58;;;;;;;24.40;10.38;;;;;;;23.74;44.69;101309.69;4453727;32;20041;-69
2021/09/05 06:29:24;;;;;;;20.83;9.73;;;;;;;23.73;44.96;101304.47;4456371;32;20422;-69
2021/09/05 06:31:50;;;;;;;18.15;9.13;;;;;;;24.03;44.51;101314.28;4453670;32;21172;-69
2021/09/05 06:34:15;;;;;;;22.23;10.00;;;;;;;24.14;44.10;101309.34;4451623;32;20037;-69
2021/09/05 06:36:41;;;;;;;18.77;9.00;;;;;;;23.98;43.86;101312.97;4455875;32;20092;-69
2021/09/05 06:39:07;;;;;;;18.10;8.70;;;;;;;24.20;43.73;101315.88;4454376;32;20093;-69
2021/09/05 06:41:32;;;;;;;18.35;9.27;;;;;;;24.29;43.60;101321.41;4452627;32;20024;-69
2021/09/05 06:43:58;;;;;;;18.20;8.40;;;;;;;24.36;43.51;101314.38;4453422;32;20041;-69
2021/09/05 06:46:24;;;;;;;19.60;8.65;;;;;;;24.51;43.16;101303.41;4452398;32;20072;-69
2021/09/05 06:48:50;;;;;;;18.98;8.80;;;;;;;24.59;42.76;101322.50;4451872;32;20069;-69
2021/09/05 06:51:16;;;;;;;18.08;8.63;;;;;;;24.60;42.93;101323.25;4451007;32;20124;-69
2021/09/05 06:53:42;;;;;;;15.55;8.80;;;;;;;24.63;42.96;101327.97;4451492;32;20174;-69
2021/09/05 06:56:09;;;;;;;16.27;9.07;;;;;;;24.61;43.04;101327.72;4456041;32;20088;-69
2021/09/05 06:58:35;;;;;;;20.42;9.68;;;;;;;24.91;42.67;101328.81;4453651;32;20112;-69
2021/09/05 07:01:01;;;;;;;23.48;9.60;;;;;;;24.78;42.67;101319.91;4453082;32;20094;-69
2021/09/05 07:03:27;;;;;;;20.90;9.48;;;;;;;24.90;42.43;101330.91;4451342;32;20084;-69
2021/09/05 07:05:53;;;;;;;18.85;9.68;;;;;;;24.79;42.42;101336.66;4458163;32;20041;-69
2021/09/05 07:08:19;;;;;;;19.50;9.02;;;;;;;25.03;42.13;101333.25;4452173;32;20100;-69
2021/09/05 07:10:45;;;;;;;20.70;9.52;;;;;;;25.04;42.14;101335.59;4455348;32;20029;-69
2021/09/05 07:13:11;;;;;;;21.62;10.05;;;;;;;25.11;42.06;101337.97;4454489;32;20199;-69
2021/09/05 07:15:36;;;;;;;23.83;11.60;;;;;;;25.22;41.74;101346.56;4455134;32;20108;-69
2021/09/05 07:18:03;;;;;;;28.83;11.15;;;;;;;25.33;41.72;101343.72;4454979;32;20429;-69
2021/09/05 07:20:29;;;;;;;22.55;9.65;;;;;;;25.49;41.55;101352.84;4452313;32;20108;-69
2021/09/05 07:22:56;;;;;;;16.55;10.15;;;;;;;25.47;41.56;101343.94;4453079;32;20037;-69
2021/09/05 07:25:22;;;;;;;23.35;10.45;;;;;;;25.57;41.35;101346.00;4450405;32;20084;-69
2021/09/05 07:27:49;;;;;;;19.73;10.52;;;;;;;25.65;41.19;101343.38;4452551;32;20073;-69
2021/09/05 07:30:15;;;;;;;19.25;10.45;;;;;;;25.82;41.07;101352.72;4454802;32;20079;-69
2021/09/05 07:32:41;;;;;;;17.52;9.32;;;;;;;25.83;41.13;101345.66;4454685;32;20103;-69
2021/09/05 07:35:07;;;;;;;17.80;9.55;;;;;;;25.99;40.90;101354.28;4453022;32;20053;-69
2021/09/05 07:37:34;;;;;;;21.58;10.25;;;;;;;26.10;40.52;101351.31;4455160;32;20465;-69
2021/09/05 07:40:00;;;;;;;21.95;9.40;;;;;;;26.46;39.93;101344.28;4451643;32;20161;-69
2021/09/05 07:42:26;;;;;;;20.40;9.77;;;;;;;26.53;39.86;101354.47;4450410;32;20045;-69
2021/09/05 07:44:52;;;;;;;26.75;10.18;;;;;;;26.61;39.24;101349.69;4451153;32;20105;-69
2021/09/05 07:47:18;;;;;;;19.85;9.93;;;;;;;26.75;39.22;101337.03;4456711;32;20029;-69
2021/09/05 07:49:44;;;;;;;14.93;9.35;;;;;;;26.88;39.10;101345.84;4451162;32;20499;-69
2021/09/05 07:52:10;;;;;;;18.90;9.25;;;;;;;26.85;38.92;101344.78;4453532;32;20046;-69
2021/09/05 07:54:36;;;;;;;19.80;10.07;;;;;;;26.63;39.43;101347.09;4449889;32;20096;-69
2021/09/05 07:57:01;;;;;;;20.58;9.27;;;;;;;26.69;39.34;101348.59;4455413;32;20159;-69
2021/09/05 07:59:27;;;;;;;18.00;9.60;;;;;;;26.86;39.22;101352.16;4454931;32;20415;-69
2021/09/05 08:01:53;;;;;;;15.23;8.98;;;;;;;27.07;38.88;101343.84;4453284;32;20106;-69
2021/09/05 08:04:18;;;;;;;17.52;9.45;;;;;;;27.17;38.56;101350.81;4450986;32;20088;-69
2021/09/05 08:06:44;;;;;;;21.17;9.15;;;;;;;27.35;38.17;101347.25;4452893;32;21254;-69
2021/09/05 08:09:10;;;;;;;17.80;8.93;;;;;;;27.59;37.82;101350.16;4454518;32;20116;-69
2021/09/05 08:11:35;;;;;;;13.95;8.00;;;;;;;27.71;37.70;101354.50;4451289;32;20060;-69
2021/09/05 08:14:02;;;;;;;17.70;8.40;;;;;;;27.83;37.46;101355.13;4454379;32;20089;-69
2021/09/05 08:16:28;;;;;;;19.30;9.18;;;;;;;27.88;37.40;101362.97;4452210;32;20048;-69
2021/09/05 08:18:54;;;;;;;20.17;9.15;;;;;;;28.07;37.14;101360.91;4448538;32;20081;-70
2021/09/05 08:21:19;;;;;;;17.90;8.70;;;;;;;28.19;36.91;101354.41;4447523;32;20084;-70
2021/09/05 08:23:45;;;;;;;17.05;8.80;;;;;;;28.32;36.84;101356.63;4451691;32;20079;-69
2021/09/05 08:26:12;;;;;;;20.92;9.13;;;;;;;28.24;36.83;101359.34;4451334;32;20073;-69
2021/09/05 08:28:39;;;;;;;15.18;7.95;;;;;;;28.48;36.42;101370.09;4454302;32;20095;-69
2021/09/05 08:31:04;;;;;;;21.87;8.98;;;;;;;28.88;35.59;101369.72;4453245;32;20033;-68
2021/09/05 08:33:31;;;;;;;22.00;8.65;;;;;;;29.13;35.30;101370.38;4455270;32;20088;-69
2021/09/05 08:35:57;;;;;;;22.92;9.00;;;;;;;29.07;35.42;101374.69;4455303;32;20457;-69
2021/09/05 08:38:23;;;;;;;17.40;8.82;;;;;;;29.04;35.40;101376.59;4449949;32;20087;-69
2021/09/05 08:40:50;;;;;;;17.85;8.05;;;;;;;29.17;35.56;101379.53;4451713;32;20385;-69
2021/09/05 08:43:18;;;;;;;14.82;6.70;;;;;;;29.60;34.64;101376.37;4457082;32;20033;-69
2021/09/05 08:45:45;;;;;;;11.98;5.87;;;;;;;29.80;34.52;101372.81;4451699;32;20030;-69
2021/09/05 08:48:14;;;;;;;13.90;6.22;;;;;;;30.26;33.85;101375.03;4453261;32;20066;-69
2021/09/05 08:50:40;;;;;;;14.70;6.10;;;;;;;30.86;32.51;101380.81;4448392;32;20037;-69
2021/09/05 08:53:06;;;;;;;11.60;6.12;;;;;;;31.07;32.53;101376.53;4449797;32;20477;-69
2021/09/05 08:55:32;;;;;;;12.70;5.65;;;;;;;31.16;32.00;101378.94;4436121;32;20060;-69
2021/09/05 08:57:57;;;;;;;13.00;5.60;;;;;;;31.15;31.66;101377.41;4436103;32;20067;-69
2021/09/05 09:00:23;;;;;;;13.13;5.50;;;;;;;30.93;31.80;101392.50;4453225;32;20065;-69
2021/09/05 09:02:53;;;;;;;16.08;6.53;;;;;;;30.98;32.09;101394.47;4451451;32;20506;-69
2021/09/05 09:05:40;;;;;;;17.75;6.25;;;;;;;30.80;32.45;101395.47;4452688;32;20085;-69
2021/09/05 09:13:32;;;;;;;16.95;6.68;;;;;;;31.35;32.23;101399.13;3988005;31;15017300;-69
2021/09/05 09:16:10;;;;;;;13.65;5.60;;;;;;;31.35;32.23;101399.13;4446226;32;20048;-69
2021/09/05 09:18:37;;;;;;;14.02;5.37;;;;;;;30.75;32.80;101400.06;4449219;32;20144;-69
2021/09/05 09:21:06;;;;;;;13.45;5.78;;;;;;;31.02;32.48;101406.56;4447063;32;20092;-69
2021/09/05 09:23:34;;;;;;;12.13;5.90;;;;;;;31.15;32.32;101405.69;4447864;32;20076;-69
2021/09/05 09:31:30;;;;;;;12.98;5.70;;;;;;;31.30;30.77;101406.66;4008398;31;15016296;-68
2021/09/05 09:33:59;;;;;;;16.52;6.25;;;;;;;31.04;31.24;101409.66;4462168;32;20050;-69
2021/09/05 09:36:28;;;;;;;17.75;6.50;;;;;;;30.85;31.72;101403.25;4464384;32;20101;-69
2021/09/05 09:39:05;;;;;;;12.30;6.50;;;;;;;30.98;31.78;101400.28;4466170;32;20075;-68
2021/09/05 09:41:39;;;;;;;20.25;6.95;;;;;;;30.79;31.99;101399.72;4463549;32;20137;-69
2021/09/05 09:44:07;;;;;;;17.47;5.67;;;;;;;31.15;31.54;101396.97;4462557;32;20477;-69
2021/09/05 09:46:35;;;;;;;14.98;6.35;;;;;;;31.54;31.01;101397.53;4466236;32;20016;-69
2021/09/05 09:49:03;;;;;;;14.60;5.85;;;;;;;31.61;30.81;101399.72;4466765;32;20107;-69
2021/09/05 09:51:31;;;;;;;14.27;6.28;;;;;;;31.87;30.31;101402.44;4466130;32;20091;-69
2021/09/05 09:53:57;;;;;;;17.55;6.10;;;;;;;31.65;29.79;101400.13;4465616;32;20466;-69
2021/09/05 09:56:24;;;;;;;18.20;7.87;;;;;;;30.94;31.32;101399.87;4464585;32;20111;-68
2021/09/05 09:58:52;;;;;;;12.80;6.25;;;;;;;30.38;32.28;101397.47;4465715;32;20091;-68
2021/09/05 10:01:20;;;;;;;11.25;5.78;;;;;;;30.75;31.71;101390.56;4451729;32;20080;-68
2021/09/05 10:03:49;;;;;;;15.90;6.43;;;;;;;30.32;32.08;101391.00;4465374;32;20044;-68
2021/09/05 10:06:15;;;;;;;14.32;5.90;;;;;;;30.91;31.03;101392.28;4467672;32;20032;-68
2021/09/05 10:08:43;;;;;;;17.62;5.82;;;;;;;31.46;30.53;101385.06;4468012;32;20129;-68
2021/09/05 10:11:10;;;;;;;14.68;5.95;;;;;;;31.87;29.95;101382.06;4465719;32;20041;-69
2021/09/05 10:13:40;;;;;;;17.58;6.03;;;;;;;32.26;29.20;101390.44;4463664;32;20079;-69
2021/09/05 10:16:08;;;;;;;11.45;5.45;;;;;;;32.64;28.56;101385.56;4462344;32;20068;-69
2021/09/05 10:18:35;;;;;;;12.23;6.25;;;;;;;32.49;28.56;101381.81;4463003;32;20080;-69
2021/09/05 10:21:03;;;;;;;17.55;6.05;;;;;;;31.88;29.22;101377.81;4461766;32;20048;-69
2021/09/05 10:23:32;;;;;;;16.90;6.35;;;;;;;32.79;28.10;101373.16;4464542;32;20089;-69
2021/09/05 10:26:14;;;;;;;10.18;5.75;;;;;;;32.70;28.74;101379.53;4462412;32;20041;-69
2021/09/05 10:28:42;;;;;;;13.18;6.05;;;;;;;33.20;27.85;101384.53;4461940;32;20040;-69
2021/09/05 10:31:10;;;;;;;19.58;7.10;;;;;;;33.39;27.94;101375.41;4462007;32;20514;-69
2021/09/05 10:33:39;;;;;;;13.13;5.93;;;;;;;33.97;27.14;101375.94;4459594;32;20077;-69
2021/09/05 10:36:14;;;;;;;13.57;5.70;;;;;;;34.25;26.48;101374.84;4464438;32;20029;-69
2021/09/05 10:38:43;;;;;;;14.60;6.50;;;;;;;34.95;25.35;101371.78;4464810;32;20494;-69
2021/09/05 10:41:14;;;;;;;14.30;6.57;;;;;;;34.71;24.90;101375.41;4458436;32;20446;-69
2021/09/05 10:46:26;;;;;;;12.52;6.22;;;;;;;36.35;23.29;101368.72;3986015;32;15023024;-69
2021/09/05 10:48:55;;;;;;;13.50;6.37;;;;;;;36.35;23.29;101368.72;4435230;32;20093;-69
2021/09/05 10:54:06;;;;;;;14.52;6.53;;;;;;;36.16;23.36;101375.94;3983042;32;15029304;-69
2021/09/05 10:59:12;;;;;;;9.32;6.07;;;;;;;36.87;22.61;101370.16;3982833;32;15024767;-68
2021/09/05 11:01:54;;;;;;;12.07;6.30;;;;;;;36.87;22.61;101370.16;4437754;32;20025;-69
2021/09/05 11:04:29;;;;;;;13.85;6.07;;;;;;;36.52;22.54;101368.66;4438812;32;20061;-69
2021/09/05 11:07:02;;;;;;;14.60;7.18;;;;;;;36.87;21.86;101361.34;4438346;32;20026;-69
2021/09/05 11:17:17;;;;;;;15.63;7.20;;;;;;;37.22;21.37;101362.75;3985362;32;15029284;-70
2021/09/05 11:22:36;;;;;;;11.50;6.15;;;;;;;37.54;21.65;101353.56;3958407;32;15726529;-70
2021/09/05 11:30:39;;;;;;;13.93;7.25;;;;;;;37.97;21.03;101358.44;4003039;31;15015725;-69
2021/09/05 11:33:07;;;;;;;13.52;6.93;;;;;;;37.97;21.03;101358.44;4462643;32;20333;-69
2021/09/05 11:35:44;;;;;;;14.27;7.07;;;;;;;37.62;21.40;101348.31;4461017;32;20049;-69
2021/09/05 11:38:11;;;;;;;12.73;6.60;;;;;;;37.37;21.73;101354.47;4461842;32;20098;-69
2021/09/05 11:40:54;;;;;;;14.87;6.18;;;;;;;37.27;21.50;101347.78;4464134;32;20029;-69
2021/09/05 11:43:39;;;;;;;11.93;7.10;;;;;;;37.61;21.08;101346.78;4464799;32;20423;-69
2021/09/05 11:46:10;;;;;;;12.88;6.82;;;;;;;37.25;20.83;101338.03;4467404;32;20063;-69
2021/09/05 11:48:36;;;;;;;14.32;7.40;;;;;;;37.16;21.26;101341.69;4465118;32;20155;-69
2021/09/05 11:51:03;;;;;;;12.85;6.53;;;;;;;37.05;21.45;101333.44;4465277;32;20080;-69
2021/09/05 11:53:29;;;;;;;16.27;7.47;;;;;;;37.56;21.17;101333.94;4465445;32;20016;-69